sensor_id;sensor_type;location;lat;lon;timestamp;pressure;altitude;pressure_sealevel;temperature;humidity
62926;BME280;55732;52.248;-0.844;2022-12-10T00:00:20;100042.91;;;-0.86;87.43
62926;BME280;55732;52.248;-0.844;2022-12-10T00:02:45;100041.76;;;-0.94;87.28
62926;BME280;55732;52.248;-0.844;2022-12-10T00:05:11;100042.48;;;-1.03;87.28
62926;BME280;55732;52.248;-0.844;2022-12-10T00:07:36;100039.48;;;-1.09;87.43
62926;BME280;55732;52.248;-0.844;2022-12-10T00:10:02;100042.15;;;-1.17;87.35
62926;BME280;55732;52.248;-0.844;2022-12-10T00:12:27;100046.06;;;-1.23;87.47
62926;BME280;55732;52.248;-0.844;2022-12-10T00:14:53;100043.73;;;-1.30;87.60
62926;BME280;55732;52.248;-0.844;2022-12-10T00:17:18;100044.41;;;-1.35;87.76
62926;BME280;55732;52.248;-0.844;2022-12-10T00:19:44;100038.61;;;-1.37;87.89
62926;BME280;55732;52.248;-0.844;2022-12-10T00:22:09;100040.96;;;-1.39;87.76
62926;BME280;55732;52.248;-0.844;2022-12-10T00:24:35;100043.04;;;-1.39;87.87
62926;BME280;55732;52.248;-0.844;2022-12-10T00:27:00;100044.63;;;-1.38;88.01
62926;BME280;55732;52.248;-0.844;2022-12-10T00:29:26;100048.57;;;-1.35;87.97
62926;BME280;55732;52.248;-0.844;2022-12-10T00:31:51;100052.44;;;-1.33;87.95
62926;BME280;55732;52.248;-0.844;2022-12-10T00:34:16;100052.83;;;-1.32;87.81
62926;BME280;55732;52.248;-0.844;2022-12-10T00:36:49;100060.93;;;-1.32;87.84
62926;BME280;55732;52.248;-0.844;2022-12-10T00:39:17;100055.35;;;-1.33;87.85
62926;BME280;55732;52.248;-0.844;2022-12-10T00:41:43;100061.73;;;-1.33;87.83
62926;BME280;55732;52.248;-0.844;2022-12-10T00:44:09;100061.32;;;-1.35;87.81
62926;BME280;55732;52.248;-0.844;2022-12-10T00:46:34;100059.46;;;-1.38;87.75
62926;BME280;55732;52.248;-0.844;2022-12-10T00:49:00;100058.33;;;-1.41;87.87
62926;BME280;55732;52.248;-0.844;2022-12-10T00:51:27;100053.08;;;-1.43;87.89
62926;BME280;55732;52.248;-0.844;2022-12-10T00:53:55;100050.23;;;-1.46;87.77
62926;BME280;55732;52.248;-0.844;2022-12-10T00:56:22;100047.69;;;-1.49;87.86
62926;BME280;55732;52.248;-0.844;2022-12-10T00:58:48;100044.11;;;-1.52;87.73
62926;BME280;55732;52.248;-0.844;2022-12-10T01:03:50;100035.29;;;-1.62;87.83
62926;BME280;55732;52.248;-0.844;2022-12-10T01:06:20;100046.92;;;-1.64;87.96
62926;BME280;55732;52.248;-0.844;2022-12-10T01:08:47;100049.60;;;-1.67;88.05
62926;BME280;55732;52.248;-0.844;2022-12-10T01:11:14;100046.48;;;-1.67;88.20
62926;BME280;55732;52.248;-0.844;2022-12-10T01:13:41;100043.27;;;-1.65;88.56
62926;BME280;55732;52.248;-0.844;2022-12-10T01:16:09;100041.31;;;-1.62;88.56
62926;BME280;55732;52.248;-0.844;2022-12-10T01:18:36;100040.59;;;-1.59;88.55
62926;BME280;55732;52.248;-0.844;2022-12-10T01:21:10;100044.21;;;-1.54;88.51
62926;BME280;55732;52.248;-0.844;2022-12-10T01:23:38;100042.61;;;-1.51;88.53
62926;BME280;55732;52.248;-0.844;2022-12-10T01:26:07;100048.77;;;-1.48;88.50
62926;BME280;55732;52.248;-0.844;2022-12-10T01:28:37;100052.10;;;-1.47;88.42
62926;BME280;55732;52.248;-0.844;2022-12-10T01:31:12;100051.52;;;-1.48;88.40
62926;BME280;55732;52.248;-0.844;2022-12-10T01:33:38;100046.98;;;-1.49;88.56
62926;BME280;55732;52.248;-0.844;2022-12-10T01:36:08;100051.79;;;-1.50;88.57
62926;BME280;55732;52.248;-0.844;2022-12-10T01:38:34;100052.92;;;-1.51;88.51
62926;BME280;55732;52.248;-0.844;2022-12-10T01:41:00;100049.22;;;-1.54;88.54
62926;BME280;55732;52.248;-0.844;2022-12-10T01:43:26;100050.67;;;-1.57;88.45
62926;BME280;55732;52.248;-0.844;2022-12-10T01:45:53;100052.05;;;-1.61;88.36
62926;BME280;55732;52.248;-0.844;2022-12-10T01:48:19;100055.20;;;-1.64;88.18
62926;BME280;55732;52.248;-0.844;2022-12-10T01:50:45;100060.66;;;-1.66;88.08
62926;BME280;55732;52.248;-0.844;2022-12-10T01:53:12;100055.94;;;-1.68;88.18
62926;BME280;55732;52.248;-0.844;2022-12-10T01:58:11;100061.08;;;-1.69;88.36
62926;BME280;55732;52.248;-0.844;2022-12-10T02:01:04;100066.31;;;-1.67;88.46
62926;BME280;55732;52.248;-0.844;2022-12-10T02:03:35;100072.08;;;-1.65;88.32
62926;BME280;55732;52.248;-0.844;2022-12-10T02:06:28;100076.25;;;-1.64;88.27
62926;BME280;55732;52.248;-0.844;2022-12-10T02:09:01;100076.83;;;-1.63;88.29
62926;BME280;55732;52.248;-0.844;2022-12-10T02:11:44;100075.28;;;-1.63;88.16
62926;BME280;55732;52.248;-0.844;2022-12-10T02:14:53;100074.55;;;-1.63;88.15
62926;BME280;55732;52.248;-0.844;2022-12-10T02:17:20;100075.86;;;-1.65;88.29
62926;BME280;55732;52.248;-0.844;2022-12-10T02:22:26;100079.77;;;-1.67;88.35
62926;BME280;55732;52.248;-0.844;2022-12-10T02:24:55;100080.16;;;-1.70;88.32
62926;BME280;55732;52.248;-0.844;2022-12-10T02:27:29;100079.16;;;-1.74;88.44
62926;BME280;55732;52.248;-0.844;2022-12-10T02:29:57;100071.95;;;-1.77;88.40
62926;BME280;55732;52.248;-0.844;2022-12-10T02:32:30;100077.91;;;-1.79;88.43
62926;BME280;55732;52.248;-0.844;2022-12-10T02:35:00;100072.30;;;-1.82;88.66
62926;BME280;55732;52.248;-0.844;2022-12-10T02:37:31;100073.55;;;-1.80;88.81
62926;BME280;55732;52.248;-0.844;2022-12-10T02:40:03;100071.56;;;-1.78;89.09
62926;BME280;55732;52.248;-0.844;2022-12-10T02:42:30;100074.66;;;-1.74;89.04
62926;BME280;55732;52.248;-0.844;2022-12-10T02:44:59;100071.45;;;-1.68;89.04
62926;BME280;55732;52.248;-0.844;2022-12-10T02:47:26;100071.48;;;-1.63;89.12
62926;BME280;55732;52.248;-0.844;2022-12-10T02:49:53;100072.70;;;-1.58;88.93
62926;BME280;55732;52.248;-0.844;2022-12-10T02:52:23;100071.99;;;-1.55;88.79
62926;BME280;55732;52.248;-0.844;2022-12-10T02:54:49;100070.83;;;-1.54;88.58
62926;BME280;55732;52.248;-0.844;2022-12-10T02:57:22;100069.45;;;-1.53;88.44
62926;BME280;55732;52.248;-0.844;2022-12-10T03:13:43;100062.73;;;-1.74;88.23
62926;BME280;55732;52.248;-0.844;2022-12-10T03:16:14;100063.12;;;-1.73;88.60
62926;BME280;55732;52.248;-0.844;2022-12-10T03:18:41;100066.86;;;-1.71;88.81
62926;BME280;55732;52.248;-0.844;2022-12-10T03:21:08;100064.29;;;-1.66;89.02
62926;BME280;55732;52.248;-0.844;2022-12-10T03:23:37;100063.00;;;-1.59;89.15
62926;BME280;55732;52.248;-0.844;2022-12-10T03:26:05;100060.95;;;-1.50;89.35
62926;BME280;55732;52.248;-0.844;2022-12-10T03:28:38;100057.75;;;-1.38;89.43
62926;BME280;55732;52.248;-0.844;2022-12-10T03:31:07;100046.30;;;-1.26;89.45
62926;BME280;55732;52.248;-0.844;2022-12-10T03:33:34;100040.52;;;-1.14;89.37
62926;BME280;55732;52.248;-0.844;2022-12-10T03:35:59;100043.38;;;-1.02;89.28
62926;BME280;55732;52.248;-0.844;2022-12-10T03:38:25;100037.85;;;-0.92;89.18
62926;BME280;55732;52.248;-0.844;2022-12-10T03:40:51;100040.60;;;-0.84;89.33
62926;BME280;55732;52.248;-0.844;2022-12-10T03:43:16;100037.86;;;-0.72;89.26
62926;BME280;55732;52.248;-0.844;2022-12-10T03:45:41;100039.58;;;-0.63;89.21
62926;BME280;55732;52.248;-0.844;2022-12-10T03:48:07;100042.23;;;-0.56;88.89
62926;BME280;55732;52.248;-0.844;2022-12-10T03:50:32;100039.79;;;-0.52;88.49
62926;BME280;55732;52.248;-0.844;2022-12-10T03:52:58;100040.86;;;-0.51;88.24
62926;BME280;55732;52.248;-0.844;2022-12-10T03:55:23;100037.02;;;-0.52;88.12
62926;BME280;55732;52.248;-0.844;2022-12-10T03:57:48;100035.55;;;-0.54;87.95
62926;BME280;55732;52.248;-0.844;2022-12-10T04:00:14;100032.12;;;-0.59;87.80
62926;BME280;55732;52.248;-0.844;2022-12-10T04:02:40;100036.56;;;-0.65;87.64
62926;BME280;55732;52.248;-0.844;2022-12-10T04:05:07;100040.94;;;-0.74;87.47
62926;BME280;55732;52.248;-0.844;2022-12-10T04:07:33;100043.38;;;-0.83;87.45
62926;BME280;55732;52.248;-0.844;2022-12-10T04:09:59;100048.55;;;-0.92;87.48
62926;BME280;55732;52.248;-0.844;2022-12-10T04:12:24;100043.71;;;-1.02;87.70
62926;BME280;55732;52.248;-0.844;2022-12-10T04:14:49;100045.15;;;-1.11;87.71
62926;BME280;55732;52.248;-0.844;2022-12-10T04:17:34;100041.16;;;-1.16;88.05
62926;BME280;55732;52.248;-0.844;2022-12-10T04:19:59;100039.83;;;-1.19;87.98
62926;BME280;55732;52.248;-0.844;2022-12-10T04:22:25;100039.48;;;-1.24;87.87
62926;BME280;55732;52.248;-0.844;2022-12-10T04:25:11;100039.58;;;-1.26;88.08
62926;BME280;55732;52.248;-0.844;2022-12-10T04:27:56;100038.02;;;-1.26;88.23
62926;BME280;55732;52.248;-0.844;2022-12-10T04:30:22;100036.77;;;-1.27;88.07
62926;BME280;55732;52.248;-0.844;2022-12-10T04:32:47;100039.27;;;-1.29;87.99
62926;BME280;55732;52.248;-0.844;2022-12-10T04:35:13;100036.44;;;-1.31;87.95
62926;BME280;55732;52.248;-0.844;2022-12-10T04:37:39;100039.26;;;-1.34;87.91
62926;BME280;55732;52.248;-0.844;2022-12-10T04:40:06;100042.38;;;-1.38;87.70
62926;BME280;55732;52.248;-0.844;2022-12-10T04:42:31;100053.38;;;-1.45;87.53
62926;BME280;55732;52.248;-0.844;2022-12-10T04:44:56;100055.36;;;-1.52;87.54
62926;BME280;55732;52.248;-0.844;2022-12-10T04:47:22;100060.15;;;-1.57;87.48
62926;BME280;55732;52.248;-0.844;2022-12-10T04:49:47;100058.30;;;-1.64;87.61
62926;BME280;55732;52.248;-0.844;2022-12-10T04:52:14;100056.85;;;-1.71;87.72
62926;BME280;55732;52.248;-0.844;2022-12-10T04:54:40;100058.48;;;-1.78;87.55
62926;BME280;55732;52.248;-0.844;2022-12-10T04:57:07;100057.37;;;-1.84;87.56
62926;BME280;55732;52.248;-0.844;2022-12-10T04:59:33;100051.96;;;-1.90;87.49
62926;BME280;55732;52.248;-0.844;2022-12-10T05:01:59;100056.45;;;-1.94;87.58
62926;BME280;55732;52.248;-0.844;2022-12-10T05:04:25;100058.59;;;-1.96;87.63
62926;BME280;55732;52.248;-0.844;2022-12-10T05:06:50;100062.20;;;-1.97;87.89
62926;BME280;55732;52.248;-0.844;2022-12-10T05:09:16;100059.08;;;-1.97;88.12
62926;BME280;55732;52.248;-0.844;2022-12-10T05:11:42;100056.86;;;-1.96;87.99
62926;BME280;55732;52.248;-0.844;2022-12-10T05:14:14;100056.05;;;-1.95;88.13
62926;BME280;55732;52.248;-0.844;2022-12-10T05:16:41;100054.55;;;-1.94;87.88
62926;BME280;55732;52.248;-0.844;2022-12-10T05:19:07;100054.90;;;-1.94;88.01
62926;BME280;55732;52.248;-0.844;2022-12-10T05:21:33;100060.10;;;-1.93;88.03
62926;BME280;55732;52.248;-0.844;2022-12-10T05:24:17;100061.98;;;-1.94;88.06
62926;BME280;55732;52.248;-0.844;2022-12-10T05:26:43;100061.76;;;-1.95;87.94
62926;BME280;55732;52.248;-0.844;2022-12-10T05:29:09;100058.15;;;-1.99;87.70
62926;BME280;55732;52.248;-0.844;2022-12-10T05:31:35;100057.48;;;-2.03;87.79
62926;BME280;55732;52.248;-0.844;2022-12-10T05:34:00;100055.91;;;-2.07;87.57
62926;BME280;55732;52.248;-0.844;2022-12-10T05:36:29;100051.99;;;-2.14;87.29
62926;BME280;55732;52.248;-0.844;2022-12-10T05:38:56;100049.86;;;-2.20;87.44
62926;BME280;55732;52.248;-0.844;2022-12-10T05:41:26;100050.36;;;-2.25;87.66
62926;BME280;55732;52.248;-0.844;2022-12-10T05:43:54;100049.98;;;-2.30;87.71
62926;BME280;55732;52.248;-0.844;2022-12-10T05:46:25;100047.52;;;-2.35;87.64
62926;BME280;55732;52.248;-0.844;2022-12-10T05:48:52;100045.92;;;-2.40;87.73
62926;BME280;55732;52.248;-0.844;2022-12-10T05:51:20;100045.30;;;-2.43;87.84
62926;BME280;55732;52.248;-0.844;2022-12-10T05:53:47;100045.64;;;-2.43;88.02
62926;BME280;55732;52.248;-0.844;2022-12-10T05:56:15;100050.11;;;-2.43;87.81
62926;BME280;55732;52.248;-0.844;2022-12-10T05:58:42;100049.55;;;-2.44;87.73
62926;BME280;55732;52.248;-0.844;2022-12-10T06:01:14;100048.39;;;-2.43;87.91
62926;BME280;55732;52.248;-0.844;2022-12-10T06:03:41;100055.21;;;-2.41;87.94
62926;BME280;55732;52.248;-0.844;2022-12-10T06:06:06;100060.66;;;-2.38;88.00
62926;BME280;55732;52.248;-0.844;2022-12-10T06:08:33;100061.21;;;-2.38;88.03
62926;BME280;55732;52.248;-0.844;2022-12-10T06:11:03;100057.73;;;-2.39;87.88
62926;BME280;55732;52.248;-0.844;2022-12-10T06:13:28;100059.06;;;-2.39;87.73
62926;BME280;55732;52.248;-0.844;2022-12-10T06:15:54;100057.48;;;-2.40;87.77
62926;BME280;55732;52.248;-0.844;2022-12-10T06:18:19;100057.64;;;-2.41;87.89
62926;BME280;55732;52.248;-0.844;2022-12-10T06:20:46;100057.20;;;-2.43;87.79
62926;BME280;55732;52.248;-0.844;2022-12-10T06:23:11;100054.77;;;-2.47;87.70
62926;BME280;55732;52.248;-0.844;2022-12-10T06:25:39;100055.48;;;-2.51;87.61
62926;BME280;55732;52.248;-0.844;2022-12-10T06:28:06;100051.35;;;-2.55;87.64
62926;BME280;55732;52.248;-0.844;2022-12-10T06:30:33;100053.29;;;-2.58;87.93
62926;BME280;55732;52.248;-0.844;2022-12-10T06:32:59;100053.15;;;-2.61;87.93
62926;BME280;55732;52.248;-0.844;2022-12-10T06:35:24;100053.34;;;-2.65;87.72
62926;BME280;55732;52.248;-0.844;2022-12-10T06:37:50;100056.01;;;-2.71;87.56
62926;BME280;55732;52.248;-0.844;2022-12-10T06:40:16;100053.98;;;-2.74;87.53
62926;BME280;55732;52.248;-0.844;2022-12-10T06:42:42;100053.75;;;-2.75;87.70
62926;BME280;55732;52.248;-0.844;2022-12-10T06:45:08;100051.70;;;-2.75;87.71
62926;BME280;55732;52.248;-0.844;2022-12-10T06:47:33;100052.55;;;-2.75;87.61
62926;BME280;55732;52.248;-0.844;2022-12-10T06:49:59;100057.30;;;-2.73;87.83
62926;BME280;55732;52.248;-0.844;2022-12-10T06:52:24;100058.71;;;-2.72;87.65
62926;BME280;55732;52.248;-0.844;2022-12-10T06:54:50;100061.86;;;-2.71;87.84
62926;BME280;55732;52.248;-0.844;2022-12-10T06:57:15;100067.27;;;-2.69;88.00
62926;BME280;55732;52.248;-0.844;2022-12-10T06:59:41;100065.44;;;-2.68;88.09
62926;BME280;55732;52.248;-0.844;2022-12-10T07:02:09;100068.27;;;-2.66;87.97
62926;BME280;55732;52.248;-0.844;2022-12-10T07:04:35;100069.95;;;-2.67;87.88
62926;BME280;55732;52.248;-0.844;2022-12-10T07:07:00;100067.46;;;-2.69;87.87
62926;BME280;55732;52.248;-0.844;2022-12-10T07:09:26;100074.10;;;-2.70;87.83
62926;BME280;55732;52.248;-0.844;2022-12-10T07:11:51;100070.41;;;-2.73;87.83
62926;BME280;55732;52.248;-0.844;2022-12-10T07:14:17;100067.20;;;-2.75;87.91
62926;BME280;55732;52.248;-0.844;2022-12-10T07:16:43;100067.91;;;-2.78;87.71
62926;BME280;55732;52.248;-0.844;2022-12-10T07:19:10;100069.60;;;-2.83;87.54
62926;BME280;55732;52.248;-0.844;2022-12-10T07:21:36;100071.24;;;-2.89;87.46
62926;BME280;55732;52.248;-0.844;2022-12-10T07:24:05;100069.00;;;-2.93;87.50
62926;BME280;55732;52.248;-0.844;2022-12-10T07:26:33;100070.08;;;-2.92;87.83
62926;BME280;55732;52.248;-0.844;2022-12-10T07:29:00;100073.79;;;-2.89;87.89
62926;BME280;55732;52.248;-0.844;2022-12-10T07:31:26;100073.69;;;-2.88;87.78
62926;BME280;55732;52.248;-0.844;2022-12-10T07:33:52;100072.84;;;-2.88;87.62
62926;BME280;55732;52.248;-0.844;2022-12-10T07:36:21;100072.40;;;-2.86;87.71
62926;BME280;55732;52.248;-0.844;2022-12-10T07:38:48;100070.27;;;-2.83;87.70
62926;BME280;55732;52.248;-0.844;2022-12-10T07:41:14;100068.27;;;-2.81;87.79
62926;BME280;55732;52.248;-0.844;2022-12-10T07:43:41;100068.84;;;-2.80;87.76
62926;BME280;55732;52.248;-0.844;2022-12-10T07:46:16;100069.59;;;-2.79;87.82
62926;BME280;55732;52.248;-0.844;2022-12-10T07:48:43;100066.15;;;-2.79;87.70
62926;BME280;55732;52.248;-0.844;2022-12-10T07:51:09;100066.61;;;-2.80;87.57
62926;BME280;55732;52.248;-0.844;2022-12-10T07:53:35;100065.52;;;-2.81;87.56
62926;BME280;55732;52.248;-0.844;2022-12-10T07:56:02;100069.25;;;-2.83;87.40
62926;BME280;55732;52.248;-0.844;2022-12-10T07:58:27;100063.63;;;-2.86;87.32
62926;BME280;55732;52.248;-0.844;2022-12-10T08:00:53;100069.06;;;-2.87;87.45
62926;BME280;55732;52.248;-0.844;2022-12-10T08:03:18;100070.55;;;-2.89;87.13
62926;BME280;55732;52.248;-0.844;2022-12-10T08:05:44;100067.45;;;-2.93;86.86
62926;BME280;55732;52.248;-0.844;2022-12-10T08:08:09;100069.36;;;-2.97;87.01
62926;BME280;55732;52.248;-0.844;2022-12-10T08:10:39;100073.73;;;-2.99;87.13
62926;BME280;55732;52.248;-0.844;2022-12-10T08:13:05;100074.02;;;-3.00;87.19
62926;BME280;55732;52.248;-0.844;2022-12-10T08:15:31;100076.80;;;-3.00;87.06
62926;BME280;55732;52.248;-0.844;2022-12-10T08:17:57;100076.04;;;-2.98;87.14
62926;BME280;55732;52.248;-0.844;2022-12-10T08:20:24;100081.63;;;-2.92;87.22
62926;BME280;55732;52.248;-0.844;2022-12-10T08:22:49;100082.27;;;-2.85;87.11
62926;BME280;55732;52.248;-0.844;2022-12-10T08:25:15;100087.95;;;-2.77;87.07
62926;BME280;55732;52.248;-0.844;2022-12-10T08:27:41;100089.03;;;-2.68;86.94
62926;BME280;55732;52.248;-0.844;2022-12-10T08:30:07;100092.30;;;-2.60;86.77
62926;BME280;55732;52.248;-0.844;2022-12-10T08:32:33;100086.05;;;-2.53;86.79
62926;BME280;55732;52.248;-0.844;2022-12-10T08:34:58;100089.12;;;-2.46;86.96
62926;BME280;55732;52.248;-0.844;2022-12-10T08:37:23;100091.66;;;-2.39;86.96
62926;BME280;55732;52.248;-0.844;2022-12-10T08:39:49;100094.58;;;-2.31;87.03
62926;BME280;55732;52.248;-0.844;2022-12-10T08:42:14;100096.63;;;-2.24;86.94
62926;BME280;55732;52.248;-0.844;2022-12-10T08:44:40;100095.98;;;-2.18;86.88
62926;BME280;55732;52.248;-0.844;2022-12-10T08:47:05;100093.95;;;-2.13;86.74
62926;BME280;55732;52.248;-0.844;2022-12-10T08:49:31;100095.83;;;-2.09;86.68
62926;BME280;55732;52.248;-0.844;2022-12-10T08:51:57;100098.38;;;-2.06;86.60
62926;BME280;55732;52.248;-0.844;2022-12-10T08:54:22;100097.48;;;-2.03;86.55
62926;BME280;55732;52.248;-0.844;2022-12-10T08:56:47;100100.04;;;-1.99;86.53
62926;BME280;55732;52.248;-0.844;2022-12-10T08:59:13;100100.76;;;-1.95;86.70
62926;BME280;55732;52.248;-0.844;2022-12-10T09:01:38;100100.98;;;-1.89;86.72
62926;BME280;55732;52.248;-0.844;2022-12-10T09:04:04;100098.76;;;-1.84;86.55
62926;BME280;55732;52.248;-0.844;2022-12-10T09:06:29;100098.70;;;-1.77;86.49
62926;BME280;55732;52.248;-0.844;2022-12-10T09:08:56;100100.11;;;-1.68;86.67
62926;BME280;55732;52.248;-0.844;2022-12-10T09:11:32;100096.79;;;-1.60;86.53
62926;BME280;55732;52.248;-0.844;2022-12-10T09:13:59;100092.16;;;-1.51;86.45
62926;BME280;55732;52.248;-0.844;2022-12-10T09:18:55;100092.05;;;-1.31;86.31
62926;BME280;55732;52.248;-0.844;2022-12-10T09:21:20;100097.08;;;-1.22;86.06
62926;BME280;55732;52.248;-0.844;2022-12-10T09:23:46;100098.46;;;-1.12;85.90
62926;BME280;55732;52.248;-0.844;2022-12-10T09:26:14;100096.64;;;-1.05;85.54
62926;BME280;55732;52.248;-0.844;2022-12-10T09:28:41;100091.82;;;-1.00;85.45
62926;BME280;55732;52.248;-0.844;2022-12-10T09:31:07;100095.80;;;-0.96;85.44
62926;BME280;55732;52.248;-0.844;2022-12-10T09:33:34;100098.67;;;-0.92;85.47
62926;BME280;55732;52.248;-0.844;2022-12-10T09:36:06;100100.81;;;-0.90;85.24
62926;BME280;55732;52.248;-0.844;2022-12-10T09:38:38;100101.46;;;-0.87;85.37
62926;BME280;55732;52.248;-0.844;2022-12-10T09:51:22;100113.27;;;-0.57;85.28
62926;BME280;55732;52.248;-0.844;2022-12-10T09:53:50;100111.86;;;-0.48;85.30
62926;BME280;55732;52.248;-0.844;2022-12-10T09:56:26;100108.64;;;-0.36;85.35
62926;BME280;55732;52.248;-0.844;2022-12-10T09:58:54;100108.70;;;-0.24;85.30
62926;BME280;55732;52.248;-0.844;2022-12-10T10:01:23;100112.86;;;-0.14;85.12
62926;BME280;55732;52.248;-0.844;2022-12-10T10:03:51;100115.30;;;-0.04;84.86
62926;BME280;55732;52.248;-0.844;2022-12-10T10:06:16;100118.74;;;0.07;84.75
62926;BME280;55732;52.248;-0.844;2022-12-10T10:08:47;100117.44;;;0.14;84.79
62926;BME280;55732;52.248;-0.844;2022-12-10T10:11:18;100117.17;;;0.22;84.75
62926;BME280;55732;52.248;-0.844;2022-12-10T10:13:52;100118.95;;;0.29;84.58
62926;BME280;55732;52.248;-0.844;2022-12-10T10:16:24;100122.63;;;0.35;84.55
62926;BME280;55732;52.248;-0.844;2022-12-10T10:18:59;100120.59;;;0.42;84.48
62926;BME280;55732;52.248;-0.844;2022-12-10T10:21:36;100120.63;;;0.49;84.41
62926;BME280;55732;52.248;-0.844;2022-12-10T10:24:05;100122.73;;;0.55;84.37
62926;BME280;55732;52.248;-0.844;2022-12-10T10:26:32;100118.73;;;0.60;84.24
62926;BME280;55732;52.248;-0.844;2022-12-10T10:29:04;100117.45;;;0.63;84.17
62926;BME280;55732;52.248;-0.844;2022-12-10T10:31:32;100116.91;;;0.68;84.17
62926;BME280;55732;52.248;-0.844;2022-12-10T10:34:04;100116.14;;;0.71;84.18
62926;BME280;55732;52.248;-0.844;2022-12-10T10:36:33;100113.88;;;0.77;84.04
62926;BME280;55732;52.248;-0.844;2022-12-10T10:41:51;100108.16;;;0.88;84.03
62926;BME280;55732;52.248;-0.844;2022-12-10T10:44:22;100109.59;;;0.96;84.15
62926;BME280;55732;52.248;-0.844;2022-12-10T10:46:50;100105.14;;;1.03;84.17
62926;BME280;55732;52.248;-0.844;2022-12-10T10:49:31;100115.02;;;1.16;83.88
62926;BME280;55732;52.248;-0.844;2022-12-10T10:52:05;100118.37;;;1.23;83.63
62926;BME280;55732;52.248;-0.844;2022-12-10T10:57:02;100120.98;;;1.36;83.60
62926;BME280;55732;52.248;-0.844;2022-12-10T10:59:32;100118.88;;;1.41;83.30
62926;BME280;55732;52.248;-0.844;2022-12-10T11:04:52;100108.24;;;1.52;82.97
62926;BME280;55732;52.248;-0.844;2022-12-10T11:07:22;100112.98;;;1.54;82.95
62926;BME280;55732;52.248;-0.844;2022-12-10T11:09:49;100109.21;;;1.56;82.93
62926;BME280;55732;52.248;-0.844;2022-12-10T11:12:33;100108.09;;;1.59;83.00
62926;BME280;55732;52.248;-0.844;2022-12-10T11:14:59;100108.14;;;1.60;83.11
62926;BME280;55732;52.248;-0.844;2022-12-10T11:17:27;100104.41;;;1.64;83.19
62926;BME280;55732;52.248;-0.844;2022-12-10T11:20:00;100101.91;;;1.68;82.99
62926;BME280;55732;52.248;-0.844;2022-12-10T11:22:31;100098.25;;;1.74;83.22
62926;BME280;55732;52.248;-0.844;2022-12-10T11:24:58;100095.02;;;1.83;83.32
62926;BME280;55732;52.248;-0.844;2022-12-10T11:27:45;100095.88;;;1.90;83.19
62926;BME280;55732;52.248;-0.844;2022-12-10T11:30:20;100094.92;;;2.00;83.19
62926;BME280;55732;52.248;-0.844;2022-12-10T11:43:45;100087.77;;;2.34;82.72
62926;BME280;55732;52.248;-0.844;2022-12-10T11:51:47;100083.89;;;2.53;82.58
62926;BME280;55732;52.248;-0.844;2022-12-10T11:57:40;100076.96;;;2.70;82.63
62926;BME280;55732;52.248;-0.844;2022-12-10T12:00:19;100078.60;;;2.81;82.48
62926;BME280;55732;52.248;-0.844;2022-12-10T12:03:10;100077.44;;;2.92;82.20
62926;BME280;55732;52.248;-0.844;2022-12-10T12:05:55;100076.98;;;3.03;81.93
62926;BME280;55732;52.248;-0.844;2022-12-10T12:11:14;100080.23;;;3.18;81.52
62926;BME280;55732;52.248;-0.844;2022-12-10T12:13:53;100076.92;;;3.26;81.55
62926;BME280;55732;52.248;-0.844;2022-12-10T12:16:46;100071.81;;;3.32;81.12
62926;BME280;55732;52.248;-0.844;2022-12-10T12:19:22;100070.01;;;3.37;80.85
62926;BME280;55732;52.248;-0.844;2022-12-10T12:21:49;100068.88;;;3.42;80.88
62926;BME280;55732;52.248;-0.844;2022-12-10T12:24:35;100071.45;;;3.49;80.79
62926;BME280;55732;52.248;-0.844;2022-12-10T12:30:18;100070.92;;;3.68;80.62
62926;BME280;55732;52.248;-0.844;2022-12-10T12:32:52;100076.67;;;3.78;80.66
62926;BME280;55732;52.248;-0.844;2022-12-10T12:35:42;100079.61;;;3.85;80.36
62926;BME280;55732;52.248;-0.844;2022-12-10T12:38:32;100079.23;;;3.93;80.01
62926;BME280;55732;52.248;-0.844;2022-12-10T12:41:10;100076.02;;;3.98;79.83
62926;BME280;55732;52.248;-0.844;2022-12-10T12:47:00;100072.49;;;4.07;79.47
62926;BME280;55732;52.248;-0.844;2022-12-10T12:49:34;100072.04;;;4.11;79.27
62926;BME280;55732;52.248;-0.844;2022-12-10T12:52:48;100070.84;;;4.13;79.05
62926;BME280;55732;52.248;-0.844;2022-12-10T12:55:17;100066.33;;;4.13;78.83
62926;BME280;55732;52.248;-0.844;2022-12-10T12:58:20;100067.87;;;4.13;78.90
62926;BME280;55732;52.248;-0.844;2022-12-10T13:00:45;100065.50;;;4.17;78.95
62926;BME280;55732;52.248;-0.844;2022-12-10T13:03:41;100065.42;;;4.22;78.99
62926;BME280;55732;52.248;-0.844;2022-12-10T13:06:23;100059.59;;;4.28;78.93
62926;BME280;55732;52.248;-0.844;2022-12-10T13:11:30;100061.27;;;4.35;78.62
62926;BME280;55732;52.248;-0.844;2022-12-10T13:22:12;100054.14;;;4.36;78.37
62926;BME280;55732;52.248;-0.844;2022-12-10T13:50:35;100064.66;;;4.29;78.21
62926;BME280;55732;52.248;-0.844;2022-12-10T13:55:53;100061.23;;;4.21;78.39
62926;BME280;55732;52.248;-0.844;2022-12-10T13:58:36;100065.69;;;4.17;78.58
62926;BME280;55732;52.248;-0.844;2022-12-10T14:04:44;100065.92;;;4.10;78.73
62926;BME280;55732;52.248;-0.844;2022-12-10T14:07:13;100061.09;;;4.02;79.04
62926;BME280;55732;52.248;-0.844;2022-12-10T14:09:50;100059.65;;;3.99;79.15
62926;BME280;55732;52.248;-0.844;2022-12-10T14:12:26;100066.58;;;3.97;79.09
62926;BME280;55732;52.248;-0.844;2022-12-10T14:15:00;100065.30;;;3.94;79.17
62926;BME280;55732;52.248;-0.844;2022-12-10T14:17:46;100064.59;;;3.94;79.46
62926;BME280;55732;52.248;-0.844;2022-12-10T14:20:17;100063.20;;;3.93;79.34
62926;BME280;55732;52.248;-0.844;2022-12-10T14:22:49;100064.23;;;3.93;79.44
62926;BME280;55732;52.248;-0.844;2022-12-10T14:25:20;100058.09;;;3.91;79.58
62926;BME280;55732;52.248;-0.844;2022-12-10T14:27:49;100057.04;;;3.89;79.57
62926;BME280;55732;52.248;-0.844;2022-12-10T14:30:18;100055.42;;;3.87;79.64
62926;BME280;55732;52.248;-0.844;2022-12-10T14:32:44;100057.74;;;3.81;79.49
62926;BME280;55732;52.248;-0.844;2022-12-10T14:35:14;100059.90;;;3.74;79.73
62926;BME280;55732;52.248;-0.844;2022-12-10T14:37:43;100067.78;;;3.67;79.71
62926;BME280;55732;52.248;-0.844;2022-12-10T14:40:24;100065.04;;;3.59;80.02
62926;BME280;55732;52.248;-0.844;2022-12-10T14:42:57;100066.14;;;3.53;80.14
62926;BME280;55732;52.248;-0.844;2022-12-10T14:45:27;100063.56;;;3.46;80.17
62926;BME280;55732;52.248;-0.844;2022-12-10T14:47:55;100062.03;;;3.39;80.43